sensor_id;sensor_type;location;lat;lon;timestamp;P1;durP1;ratioP1;P2;durP2;ratioP2
52284;SDS011;38238;53.304;6.606;2022-09-30T00:01:07;7.65;;;4.00;;
52284;SDS011;38238;53.304;6.606;2022-09-30T00:03:32;4.90;;;3.80;;
52284;SDS011;38238;53.304;6.606;2022-09-30T00:05:59;5.57;;;3.22;;
52284;SDS011;38238;53.304;6.606;2022-09-30T00:08:27;4.88;;;3.60;;
52284;SDS011;38238;53.304;6.606;2022-09-30T00:10:59;5.45;;;4.00;;
52284;SDS011;38238;53.304;6.606;2022-09-30T00:13:45;4.85;;;4.20;;
52284;SDS011;38238;53.304;6.606;2022-09-30T00:16:13;5.97;;;4.10;;
52284;SDS011;38238;53.304;6.606;2022-09-30T00:18:40;6.28;;;4.07;;
52284;SDS011;38238;53.304;6.606;2022-09-30T00:21:07;7.85;;;4.18;;
52284;SDS011;38238;53.304;6.606;2022-09-30T00:23:33;8.05;;;4.22;;
52284;SDS011;38238;53.304;6.606;2022-09-30T00:26:02;6.93;;;4.40;;
52284;SDS011;38238;53.304;6.606;2022-09-30T00:28:30;4.68;;;3.53;;
52284;SDS011;38238;53.304;6.606;2022-09-30T00:30:59;5.82;;;3.50;;
52284;SDS011;38238;53.304;6.606;2022-09-30T00:33:27;4.35;;;3.60;;
52284;SDS011;38238;53.304;6.606;2022-09-30T00:35:53;5.07;;;3.80;;
52284;SDS011;38238;53.304;6.606;2022-09-30T00:38:19;4.53;;;3.75;;
52284;SDS011;38238;53.304;6.606;2022-09-30T00:40:44;4.30;;;3.65;;
52284;SDS011;38238;53.304;6.606;2022-09-30T00:43:17;4.93;;;3.53;;
52284;SDS011;38238;53.304;6.606;2022-09-30T00:45:48;4.50;;;3.35;;
52284;SDS011;38238;53.304;6.606;2022-09-30T00:48:20;5.43;;;3.13;;
52284;SDS011;38238;53.304;6.606;2022-09-30T00:50:52;3.80;;;3.10;;
52284;SDS011;38238;53.304;6.606;2022-09-30T00:53:29;4.57;;;3.42;;
52284;SDS011;38238;53.304;6.606;2022-09-30T00:56:07;4.68;;;3.00;;
52284;SDS011;38238;53.304;6.606;2022-09-30T00:58:43;4.07;;;3.20;;
52284;SDS011;38238;53.304;6.606;2022-09-30T01:01:15;4.40;;;2.90;;
52284;SDS011;38238;53.304;6.606;2022-09-30T01:06:16;3.72;;;3.33;;
52284;SDS011;38238;53.304;6.606;2022-09-30T01:08:43;4.32;;;3.40;;
52284;SDS011;38238;53.304;6.606;2022-09-30T01:11:10;9.60;;;3.40;;
52284;SDS011;38238;53.304;6.606;2022-09-30T01:13:36;6.43;;;4.03;;
52284;SDS011;38238;53.304;6.606;2022-09-30T01:32:27;4.00;;;3.33;;
52284;SDS011;38238;53.304;6.606;2022-09-30T01:35:12;5.00;;;3.92;;
52284;SDS011;38238;53.304;6.606;2022-09-30T01:43:18;3.38;;;3.05;;
52284;SDS011;38238;53.304;6.606;2022-09-30T01:45:56;5.43;;;3.25;;
52284;SDS011;38238;53.304;6.606;2022-09-30T01:48:49;4.40;;;3.35;;
52284;SDS011;38238;53.304;6.606;2022-09-30T01:56:42;3.65;;;3.25;;
52284;SDS011;38238;53.304;6.606;2022-09-30T02:01:46;4.97;;;3.20;;
52284;SDS011;38238;53.304;6.606;2022-09-30T02:04:27;4.60;;;3.00;;
52284;SDS011;38238;53.304;6.606;2022-09-30T02:07:01;4.97;;;3.40;;
52284;SDS011;38238;53.304;6.606;2022-09-30T02:09:33;6.60;;;3.10;;
52284;SDS011;38238;53.304;6.606;2022-09-30T02:12:06;4.10;;;3.45;;
52284;SDS011;38238;53.304;6.606;2022-09-30T02:14:41;5.13;;;3.50;;
52284;SDS011;38238;53.304;6.606;2022-09-30T02:17:28;5.03;;;3.60;;
52284;SDS011;38238;53.304;6.606;2022-09-30T02:20:48;4.13;;;3.38;;
52284;SDS011;38238;53.304;6.606;2022-09-30T02:25:47;5.45;;;3.72;;
52284;SDS011;38238;53.304;6.606;2022-09-30T02:28:21;5.32;;;3.38;;
52284;SDS011;38238;53.304;6.606;2022-09-30T02:30:51;5.30;;;3.60;;
52284;SDS011;38238;53.304;6.606;2022-09-30T02:33:34;5.88;;;3.40;;
52284;SDS011;38238;53.304;6.606;2022-09-30T02:36:06;4.10;;;3.30;;
52284;SDS011;38238;53.304;6.606;2022-09-30T02:38:40;4.70;;;3.28;;
52284;SDS011;38238;53.304;6.606;2022-09-30T02:41:27;4.30;;;3.60;;
52284;SDS011;38238;53.304;6.606;2022-09-30T02:43:57;4.60;;;3.50;;
52284;SDS011;38238;53.304;6.606;2022-09-30T02:46:30;4.18;;;3.20;;
52284;SDS011;38238;53.304;6.606;2022-09-30T02:49:08;5.18;;;3.50;;
52284;SDS011;38238;53.304;6.606;2022-09-30T02:51:47;4.40;;;3.35;;
52284;SDS011;38238;53.304;6.606;2022-09-30T02:54:16;4.13;;;3.10;;
52284;SDS011;38238;53.304;6.606;2022-09-30T02:59:21;3.58;;;3.28;;
52284;SDS011;38238;53.304;6.606;2022-09-30T03:01:49;3.53;;;2.90;;
52284;SDS011;38238;53.304;6.606;2022-09-30T03:04:17;4.32;;;3.15;;
52284;SDS011;38238;53.304;6.606;2022-09-30T03:06:46;3.70;;;3.30;;
52284;SDS011;38238;53.304;6.606;2022-09-30T03:09:12;4.68;;;3.78;;
52284;SDS011;38238;53.304;6.606;2022-09-30T03:11:38;4.43;;;3.28;;
52284;SDS011;38238;53.304;6.606;2022-09-30T03:19:38;3.55;;;3.03;;
52284;SDS011;38238;53.304;6.606;2022-09-30T03:25:12;5.63;;;3.03;;
52284;SDS011;38238;53.304;6.606;2022-09-30T03:30:18;3.95;;;3.10;;
52284;SDS011;38238;53.304;6.606;2022-09-30T03:35:27;6.07;;;3.50;;
52284;SDS011;38238;53.304;6.606;2022-09-30T03:40:52;4.70;;;3.60;;
52284;SDS011;38238;53.304;6.606;2022-09-30T03:43:35;4.43;;;3.28;;
52284;SDS011;38238;53.304;6.606;2022-09-30T03:46:52;3.90;;;3.20;;
52284;SDS011;38238;53.304;6.606;2022-09-30T03:48:56;3.97;;;3.10;;
52284;SDS011;38238;53.304;6.606;2022-09-30T03:51:25;4.32;;;3.50;;
52284;SDS011;38238;53.304;6.606;2022-09-30T03:53:53;5.25;;;3.50;;
52284;SDS011;38238;53.304;6.606;2022-09-30T03:56:24;3.55;;;2.85;;
52284;SDS011;38238;53.304;6.606;2022-09-30T03:58:51;3.63;;;3.28;;
52284;SDS011;38238;53.304;6.606;2022-09-30T04:01:17;4.18;;;3.10;;
52284;SDS011;38238;53.304;6.606;2022-09-30T04:03:49;4.93;;;3.00;;
52284;SDS011;38238;53.304;6.606;2022-09-30T04:06:23;3.97;;;3.25;;
52284;SDS011;38238;53.304;6.606;2022-09-30T04:08:49;4.30;;;3.45;;
52284;SDS011;38238;53.304;6.606;2022-09-30T04:11:15;4.68;;;3.53;;
52284;SDS011;38238;53.304;6.606;2022-09-30T04:13:41;4.13;;;2.72;;
52284;SDS011;38238;53.304;6.606;2022-09-30T04:16:08;3.78;;;3.20;;
52284;SDS011;38238;53.304;6.606;2022-09-30T04:18:35;3.70;;;3.17;;
52284;SDS011;38238;53.304;6.606;2022-09-30T04:21:09;4.00;;;3.50;;
52284;SDS011;38238;53.304;6.606;2022-09-30T04:23:37;4.10;;;3.08;;
52284;SDS011;38238;53.304;6.606;2022-09-30T04:26:04;3.67;;;3.05;;
52284;SDS011;38238;53.304;6.606;2022-09-30T04:28:31;3.95;;;3.08;;
52284;SDS011;38238;53.304;6.606;2022-09-30T04:31:01;5.07;;;3.22;;
52284;SDS011;38238;53.304;6.606;2022-09-30T04:33:28;4.07;;;3.20;;
52284;SDS011;38238;53.304;6.606;2022-09-30T04:35:54;4.30;;;3.65;;
52284;SDS011;38238;53.304;6.606;2022-09-30T04:38:21;4.30;;;3.67;;
52284;SDS011;38238;53.304;6.606;2022-09-30T04:40:48;5.03;;;3.67;;
52284;SDS011;38238;53.304;6.606;2022-09-30T04:43:15;4.78;;;3.92;;
52284;SDS011;38238;53.304;6.606;2022-09-30T04:45:43;5.00;;;4.50;;
52284;SDS011;38238;53.304;6.606;2022-09-30T04:48:10;5.18;;;4.30;;
52284;SDS011;38238;53.304;6.606;2022-09-30T04:50:36;5.03;;;4.43;;
52284;SDS011;38238;53.304;6.606;2022-09-30T04:53:02;5.15;;;4.28;;
52284;SDS011;38238;53.304;6.606;2022-09-30T04:55:28;7.90;;;4.93;;
52284;SDS011;38238;53.304;6.606;2022-09-30T04:57:54;6.22;;;4.90;;
52284;SDS011;38238;53.304;6.606;2022-09-30T05:00:20;6.75;;;5.63;;
52284;SDS011;38238;53.304;6.606;2022-09-30T05:02:46;5.60;;;4.85;;
52284;SDS011;38238;53.304;6.606;2022-09-30T05:05:12;5.70;;;5.00;;
52284;SDS011;38238;53.304;6.606;2022-09-30T05:07:38;5.85;;;5.25;;
52284;SDS011;38238;53.304;6.606;2022-09-30T05:10:04;6.07;;;5.15;;
52284;SDS011;38238;53.304;6.606;2022-09-30T05:12:32;5.57;;;4.28;;
52284;SDS011;38238;53.304;6.606;2022-09-30T05:14:58;5.50;;;4.93;;
52284;SDS011;38238;53.304;6.606;2022-09-30T05:17:24;5.10;;;3.97;;
52284;SDS011;38238;53.304;6.606;2022-09-30T05:19:50;4.90;;;4.32;;
52284;SDS011;38238;53.304;6.606;2022-09-30T05:22:16;4.97;;;4.47;;
52284;SDS011;38238;53.304;6.606;2022-09-30T05:24:42;5.30;;;4.80;;
52284;SDS011;38238;53.304;6.606;2022-09-30T05:27:07;4.78;;;4.30;;
52284;SDS011;38238;53.304;6.606;2022-09-30T05:29:33;5.50;;;5.00;;
52284;SDS011;38238;53.304;6.606;2022-09-30T05:31:59;5.95;;;5.00;;
52284;SDS011;38238;53.304;6.606;2022-09-30T05:34:25;5.28;;;4.70;;
52284;SDS011;38238;53.304;6.606;2022-09-30T05:36:51;5.00;;;4.50;;
52284;SDS011;38238;53.304;6.606;2022-09-30T05:39:17;5.28;;;4.65;;
52284;SDS011;38238;53.304;6.606;2022-09-30T05:41:42;5.07;;;4.55;;
52284;SDS011;38238;53.304;6.606;2022-09-30T05:44:08;4.55;;;4.13;;
52284;SDS011;38238;53.304;6.606;2022-09-30T05:46:34;4.85;;;4.25;;
52284;SDS011;38238;53.304;6.606;2022-09-30T05:49:00;4.70;;;4.20;;
52284;SDS011;38238;53.304;6.606;2022-09-30T05:51:25;9.60;;;5.22;;
52284;SDS011;38238;53.304;6.606;2022-09-30T05:53:51;5.88;;;5.28;;
52284;SDS011;38238;53.304;6.606;2022-09-30T05:56:17;5.38;;;4.88;;
52284;SDS011;38238;53.304;6.606;2022-09-30T05:58:43;5.97;;;4.57;;
52284;SDS011;38238;53.304;6.606;2022-09-30T06:01:12;6.32;;;4.38;;
52284;SDS011;38238;53.304;6.606;2022-09-30T06:03:39;5.28;;;4.78;;
52284;SDS011;38238;53.304;6.606;2022-09-30T06:06:05;5.15;;;4.65;;
52284;SDS011;38238;53.304;6.606;2022-09-30T06:08:31;6.40;;;4.75;;
52284;SDS011;38238;53.304;6.606;2022-09-30T06:10:57;5.63;;;5.07;;
52284;SDS011;38238;53.304;6.606;2022-09-30T06:13:23;5.70;;;5.20;;
52284;SDS011;38238;53.304;6.606;2022-09-30T06:15:59;5.93;;;5.32;;
52284;SDS011;38238;53.304;6.606;2022-09-30T06:20:58;8.60;;;5.60;;
52284;SDS011;38238;53.304;6.606;2022-09-30T06:23:26;7.97;;;6.47;;
52284;SDS011;38238;53.304;6.606;2022-09-30T06:25:52;7.20;;;6.10;;
52284;SDS011;38238;53.304;6.606;2022-09-30T06:28:19;8.90;;;7.20;;
52284;SDS011;38238;53.304;6.606;2022-09-30T06:30:45;8.25;;;7.28;;
52284;SDS011;38238;53.304;6.606;2022-09-30T06:33:12;7.88;;;7.07;;
52284;SDS011;38238;53.304;6.606;2022-09-30T06:35:38;10.25;;;8.32;;
52284;SDS011;38238;53.304;6.606;2022-09-30T06:38:08;10.43;;;8.23;;
52284;SDS011;38238;53.304;6.606;2022-09-30T06:40:34;8.77;;;7.65;;
52284;SDS011;38238;53.304;6.606;2022-09-30T06:43:00;8.93;;;7.53;;
52284;SDS011;38238;53.304;6.606;2022-09-30T06:45:27;8.20;;;6.10;;
52284;SDS011;38238;53.304;6.606;2022-09-30T06:48:00;7.03;;;6.00;;
52284;SDS011;38238;53.304;6.606;2022-09-30T06:50:31;7.72;;;6.45;;
52284;SDS011;38238;53.304;6.606;2022-09-30T06:53:00;7.28;;;6.30;;
52284;SDS011;38238;53.304;6.606;2022-09-30T06:55:30;7.95;;;6.28;;
52284;SDS011;38238;53.304;6.606;2022-09-30T06:57:56;7.40;;;6.45;;
52284;SDS011;38238;53.304;6.606;2022-09-30T07:00:23;7.85;;;6.35;;
52284;SDS011;38238;53.304;6.606;2022-09-30T07:02:53;7.30;;;5.95;;
52284;SDS011;38238;53.304;6.606;2022-09-30T07:05:20;8.35;;;5.97;;
52284;SDS011;38238;53.304;6.606;2022-09-30T07:07:47;7.22;;;5.90;;
52284;SDS011;38238;53.304;6.606;2022-09-30T07:10:13;6.88;;;6.00;;
52284;SDS011;38238;53.304;6.606;2022-09-30T07:12:39;7.47;;;5.97;;
52284;SDS011;38238;53.304;6.606;2022-09-30T07:15:06;7.65;;;6.20;;
52284;SDS011;38238;53.304;6.606;2022-09-30T07:17:32;8.98;;;6.38;;
52284;SDS011;38238;53.304;6.606;2022-09-30T07:19:58;8.05;;;6.57;;
52284;SDS011;38238;53.304;6.606;2022-09-30T07:22:23;8.38;;;7.13;;
52284;SDS011;38238;53.304;6.606;2022-09-30T07:24:54;10.98;;;7.32;;
52284;SDS011;38238;53.304;6.606;2022-09-30T07:27:22;8.95;;;7.70;;
52284;SDS011;38238;53.304;6.606;2022-09-30T07:29:48;8.77;;;7.20;;
52284;SDS011;38238;53.304;6.606;2022-09-30T07:32:14;8.85;;;7.72;;
52284;SDS011;38238;53.304;6.606;2022-09-30T07:34:40;8.05;;;7.25;;
52284;SDS011;38238;53.304;6.606;2022-09-30T07:37:10;8.63;;;7.47;;
52284;SDS011;38238;53.304;6.606;2022-09-30T07:39:39;10.07;;;7.38;;
52284;SDS011;38238;53.304;6.606;2022-09-30T07:42:07;10.15;;;8.20;;
52284;SDS011;38238;53.304;6.606;2022-09-30T07:44:33;9.38;;;8.15;;
52284;SDS011;38238;53.304;6.606;2022-09-30T07:46:59;11.13;;;8.02;;
52284;SDS011;38238;53.304;6.606;2022-09-30T07:49:25;10.00;;;8.77;;
52284;SDS011;38238;53.304;6.606;2022-09-30T07:51:52;9.95;;;8.93;;
52284;SDS011;38238;53.304;6.606;2022-09-30T07:54:20;13.52;;;11.00;;
52284;SDS011;38238;53.304;6.606;2022-09-30T07:56:48;10.95;;;9.45;;
52284;SDS011;38238;53.304;6.606;2022-09-30T07:59:14;9.57;;;8.63;;
52284;SDS011;38238;53.304;6.606;2022-09-30T08:01:40;10.50;;;7.95;;
52284;SDS011;38238;53.304;6.606;2022-09-30T08:04:07;9.68;;;7.63;;
52284;SDS011;38238;53.304;6.606;2022-09-30T08:06:39;10.57;;;8.27;;
52284;SDS011;38238;53.304;6.606;2022-09-30T08:09:07;10.23;;;7.55;;
52284;SDS011;38238;53.304;6.606;2022-09-30T08:11:34;9.40;;;7.53;;
52284;SDS011;38238;53.304;6.606;2022-09-30T08:14:01;9.60;;;6.97;;
52284;SDS011;38238;53.304;6.606;2022-09-30T08:16:27;7.63;;;6.82;;
52284;SDS011;38238;53.304;6.606;2022-09-30T08:18:57;8.73;;;6.93;;
52284;SDS011;38238;53.304;6.606;2022-09-30T08:21:25;6.93;;;6.00;;
52284;SDS011;38238;53.304;6.606;2022-09-30T08:23:51;7.78;;;5.82;;
52284;SDS011;38238;53.304;6.606;2022-09-30T08:26:17;7.13;;;5.68;;
52284;SDS011;38238;53.304;6.606;2022-09-30T08:28:43;5.35;;;3.92;;
52284;SDS011;38238;53.304;6.606;2022-09-30T08:31:16;5.60;;;4.63;;
52284;SDS011;38238;53.304;6.606;2022-09-30T08:33:45;6.45;;;5.57;;
52284;SDS011;38238;53.304;6.606;2022-09-30T08:36:12;9.50;;;5.68;;
52284;SDS011;38238;53.304;6.606;2022-09-30T08:38:44;7.80;;;5.78;;
52284;SDS011;38238;53.304;6.606;2022-09-30T08:52:10;7.60;;;4.70;;
52284;SDS011;38238;53.304;6.606;2022-09-30T08:55:00;6.30;;;4.50;;
52284;SDS011;38238;53.304;6.606;2022-09-30T08:57:33;6.07;;;4.20;;
52284;SDS011;38238;53.304;6.606;2022-09-30T09:00:04;5.22;;;3.45;;
52284;SDS011;38238;53.304;6.606;2022-09-30T09:02:43;4.38;;;3.40;;
52284;SDS011;38238;53.304;6.606;2022-09-30T09:10:46;4.45;;;3.03;;
52284;SDS011;38238;53.304;6.606;2022-09-30T09:23:43;4.90;;;2.83;;
52284;SDS011;38238;53.304;6.606;2022-09-30T09:26:10;5.53;;;3.13;;
52284;SDS011;38238;53.304;6.606;2022-09-30T09:31:35;5.13;;;3.00;;
52284;SDS011;38238;53.304;6.606;2022-09-30T09:34:06;4.65;;;3.10;;
52284;SDS011;38238;53.304;6.606;2022-09-30T09:39:26;5.40;;;3.13;;
52284;SDS011;38238;53.304;6.606;2022-09-30T09:47:53;5.03;;;3.40;;
52284;SDS011;38238;53.304;6.606;2022-09-30T09:50:27;5.93;;;3.22;;
52284;SDS011;38238;53.304;6.606;2022-09-30T09:55:50;2.67;;;2.00;;
52284;SDS011;38238;53.304;6.606;2022-09-30T09:58:20;5.10;;;2.00;;
52284;SDS011;38238;53.304;6.606;2022-09-30T10:00:46;3.53;;;2.20;;
52284;SDS011;38238;53.304;6.606;2022-09-30T10:03:12;2.95;;;1.90;;
52284;SDS011;38238;53.304;6.606;2022-09-30T10:05:45;2.95;;;1.70;;
52284;SDS011;38238;53.304;6.606;2022-09-30T10:08:23;3.92;;;1.83;;
52284;SDS011;38238;53.304;6.606;2022-09-30T10:11:35;4.43;;;1.88;;
52284;SDS011;38238;53.304;6.606;2022-09-30T10:13:46;4.60;;;1.90;;
52284;SDS011;38238;53.304;6.606;2022-09-30T10:16:24;2.72;;;1.67;;
52284;SDS011;38238;53.304;6.606;2022-09-30T10:18:57;2.88;;;1.70;;
52284;SDS011;38238;53.304;6.606;2022-09-30T10:21:24;4.32;;;1.67;;
52284;SDS011;38238;53.304;6.606;2022-09-30T10:23:52;2.67;;;1.33;;
52284;SDS011;38238;53.304;6.606;2022-09-30T10:26:22;2.50;;;1.80;;
52284;SDS011;38238;53.304;6.606;2022-09-30T10:28:50;2.45;;;1.42;;
52284;SDS011;38238;53.304;6.606;2022-09-30T10:33:55;2.55;;;1.70;;
52284;SDS011;38238;53.304;6.606;2022-09-30T10:36:21;2.63;;;1.77;;
52284;SDS011;38238;53.304;6.606;2022-09-30T10:39:00;2.28;;;1.65;;
52284;SDS011;38238;53.304;6.606;2022-09-30T10:41:30;1.33;;;1.10;;
52284;SDS011;38238;53.304;6.606;2022-09-30T10:44:01;3.78;;;1.58;;
52284;SDS011;38238;53.304;6.606;2022-09-30T10:46:37;2.40;;;1.45;;
52284;SDS011;38238;53.304;6.606;2022-09-30T10:49:19;2.97;;;1.63;;
52284;SDS011;38238;53.304;6.606;2022-09-30T10:51:55;2.38;;;1.40;;
52284;SDS011;38238;53.304;6.606;2022-09-30T10:57:14;1.88;;;1.20;;
52284;SDS011;38238;53.304;6.606;2022-09-30T10:59:44;2.15;;;1.33;;
52284;SDS011;38238;53.304;6.606;2022-09-30T11:02:22;2.08;;;1.30;;
52284;SDS011;38238;53.304;6.606;2022-09-30T11:10:58;2.55;;;1.75;;
52284;SDS011;38238;53.304;6.606;2022-09-30T11:16:40;3.15;;;2.13;;
52284;SDS011;38238;53.304;6.606;2022-09-30T11:25:07;4.43;;;2.30;;
52284;SDS011;38238;53.304;6.606;2022-09-30T11:27:49;3.47;;;2.47;;
52284;SDS011;38238;53.304;6.606;2022-09-30T11:30:49;4.80;;;2.30;;
52284;SDS011;38238;53.304;6.606;2022-09-30T11:33:39;3.28;;;2.05;;
52284;SDS011;38238;53.304;6.606;2022-09-30T11:39:16;3.70;;;1.73;;
52284;SDS011;38238;53.304;6.606;2022-09-30T11:41:57;2.40;;;1.27;;
52284;SDS011;38238;53.304;6.606;2022-09-30T11:44:34;2.88;;;1.48;;
52284;SDS011;38238;53.304;6.606;2022-09-30T11:58:27;4.95;;;1.80;;
52284;SDS011;38238;53.304;6.606;2022-09-30T12:00:59;4.18;;;1.70;;
52284;SDS011;38238;53.304;6.606;2022-09-30T12:03:39;3.65;;;1.50;;
52284;SDS011;38238;53.304;6.606;2022-09-30T12:06:13;2.25;;;1.38;;
52284;SDS011;38238;53.304;6.606;2022-09-30T12:08:53;2.78;;;1.35;;
52284;SDS011;38238;53.304;6.606;2022-09-30T12:14:14;3.15;;;1.85;;
52284;SDS011;38238;53.304;6.606;2022-09-30T12:16:44;2.60;;;1.60;;
52284;SDS011;38238;53.304;6.606;2022-09-30T12:19:24;3.53;;;1.50;;
52284;SDS011;38238;53.304;6.606;2022-09-30T12:24:42;2.53;;;1.73;;
52284;SDS011;38238;53.304;6.606;2022-09-30T12:27:15;3.22;;;1.90;;
52284;SDS011;38238;53.304;6.606;2022-09-30T12:49:54;2.05;;;1.30;;
52284;SDS011;38238;53.304;6.606;2022-09-30T12:52:22;1.85;;;1.33;;
52284;SDS011;38238;53.304;6.606;2022-09-30T12:57:23;2.17;;;1.33;;
52284;SDS011;38238;53.304;6.606;2022-09-30T13:00:04;3.10;;;1.60;;
52284;SDS011;38238;53.304;6.606;2022-09-30T13:02:38;4.43;;;1.80;;
52284;SDS011;38238;53.304;6.606;2022-09-30T13:20:54;4.88;;;1.98;;
52284;SDS011;38238;53.304;6.606;2022-09-30T13:23:38;3.72;;;1.83;;
52284;SDS011;38238;53.304;6.606;2022-09-30T13:28:48;3.58;;;1.70;;
52284;SDS011;38238;53.304;6.606;2022-09-30T13:39:52;2.92;;;1.95;;
52284;SDS011;38238;53.304;6.606;2022-09-30T13:42:24;4.15;;;2.05;;
52284;SDS011;38238;53.304;6.606;2022-09-30T13:50:45;3.92;;;2.10;;
52284;SDS011;38238;53.304;6.606;2022-09-30T13:53:29;3.92;;;1.77;;
52284;SDS011;38238;53.304;6.606;2022-09-30T14:23:38;4.78;;;2.15;;
52284;SDS011;38238;53.304;6.606;2022-09-30T14:32:31;3.30;;;2.20;;
52284;SDS011;38238;53.304;6.606;2022-09-30T14:34:58;4.65;;;2.42;;
52284;SDS011;38238;53.304;6.606;2022-09-30T14:37:30;3.17;;;2.47;;
52284;SDS011;38238;53.304;6.606;2022-09-30T14:39:58;3.15;;;2.28;;
52284;SDS011;38238;53.304;6.606;2022-09-30T14:42:29;4.30;;;3.20;;
52284;SDS011;38238;53.304;6.606;2022-09-30T14:44:57;6.07;;;3.63;;
52284;SDS011;38238;53.304;6.606;2022-09-30T14:47:32;4.50;;;3.20;;
52284;SDS011;38238;53.304;6.606;2022-09-30T14:50:02;3.80;;;2.58;;
52284;SDS011;38238;53.304;6.606;2022-09-30T14:52:41;6.78;;;3.13;;
52284;SDS011;38238;53.304;6.606;2022-09-30T14:55:19;6.60;;;3.47;;
52284;SDS011;38238;53.304;6.606;2022-09-30T14:57:49;4.47;;;2.97;;
52284;SDS011;38238;53.304;6.606;2022-09-30T15:00:29;5.50;;;3.42;;
52284;SDS011;38238;53.304;6.606;2022-09-30T15:02:56;5.03;;;2.50;;
52284;SDS011;38238;53.304;6.606;2022-09-30T15:05:23;4.63;;;3.15;;
52284;SDS011;38238;53.304;6.606;2022-09-30T15:07:50;4.72;;;3.42;;
52284;SDS011;38238;53.304;6.606;2022-09-30T15:10:22;4.35;;;3.33;;
52284;SDS011;38238;53.304;6.606;2022-09-30T15:12:49;4.88;;;3.58;;
52284;SDS011;38238;53.304;6.606;2022-09-30T15:17:59;4.05;;;2.60;;
52284;SDS011;38238;53.304;6.606;2022-09-30T15:22:58;4.80;;;2.40;;
52284;SDS011;38238;53.304;6.606;2022-09-30T15:25:27;2.75;;;1.95;;
52284;SDS011;38238;53.304;6.606;2022-09-30T15:27:54;3.58;;;2.53;;
52284;SDS011;38238;53.304;6.606;2022-09-30T15:30:25;4.15;;;2.40;;
52284;SDS011;38238;53.304;6.606;2022-09-30T15:33:00;3.67;;;2.13;;
52284;SDS011;38238;53.304;6.606;2022-09-30T15:35:27;3.97;;;2.28;;
52284;SDS011;38238;53.304;6.606;2022-09-30T15:37:53;5.53;;;2.50;;
52284;SDS011;38238;53.304;6.606;2022-09-30T15:40:34;3.65;;;2.17;;
52284;SDS011;38238;53.304;6.606;2022-09-30T15:43:14;4.90;;;2.83;;
52284;SDS011;38238;53.304;6.606;2022-09-30T15:45:52;3.92;;;2.60;;
52284;SDS011;38238;53.304;6.606;2022-09-30T15:56:14;3.70;;;2.55;;
52284;SDS011;38238;53.304;6.606;2022-09-30T15:58:56;4.60;;;2.20;;
52284;SDS011;38238;53.304;6.606;2022-09-30T16:01:23;4.30;;;2.53;;
52284;SDS011;38238;53.304;6.606;2022-09-30T16:11:43;4.45;;;2.40;;
52284;SDS011;38238;53.304;6.606;2022-09-30T16:14:21;3.33;;;2.33;;
52284;SDS011;38238;53.304;6.606;2022-09-30T16:16:52;4.45;;;2.85;;
52284;SDS011;38238;53.304;6.606;2022-09-30T16:19:20;4.05;;;2.70;;
52284;SDS011;38238;53.304;6.606;2022-09-30T16:21:48;3.50;;;2.50;;
52284;SDS011;38238;53.304;6.606;2022-09-30T16:26:58;3.72;;;2.80;;
52284;SDS011;38238;53.304;6.606;2022-09-30T16:29:44;3.42;;;2.78;;
52284;SDS011;38238;53.304;6.606;2022-09-30T16:32:10;4.57;;;3.08;;
52284;SDS011;38238;53.304;6.606;2022-09-30T16:34:38;3.85;;;3.10;;
52284;SDS011;38238;53.304;6.606;2022-09-30T16:37:12;6.28;;;3.55;;
52284;SDS011;38238;53.304;6.606;2022-09-30T16:39:39;5.18;;;3.58;;
52284;SDS011;38238;53.304;6.606;2022-09-30T16:42:05;6.03;;;3.67;;
52284;SDS011;38238;53.304;6.606;2022-09-30T16:44:31;5.28;;;3.15;;
52284;SDS011;38238;53.304;6.606;2022-09-30T16:47:03;5.10;;;3.33;;
52284;SDS011;38238;53.304;6.606;2022-09-30T16:49:29;4.13;;;2.92;;
52284;SDS011;38238;53.304;6.606;2022-09-30T16:51:55;4.65;;;3.05;;
52284;SDS011;38238;53.304;6.606;2022-09-30T16:54:20;3.80;;;3.03;;
52284;SDS011;38238;53.304;6.606;2022-09-30T16:56:46;4.30;;;2.92;;
52284;SDS011;38238;53.304;6.606;2022-09-30T16:59:13;4.32;;;3.35;;
52284;SDS011;38238;53.304;6.606;2022-09-30T17:01:41;3.78;;;3.10;;
52284;SDS011;38238;53.304;6.606;2022-09-30T17:04:07;4.30;;;3.42;;
52284;SDS011;38238;53.304;6.606;2022-09-30T17:06:34;5.47;;;3.83;;
52284;SDS011;38238;53.304;6.606;2022-09-30T17:09:01;4.40;;;3.50;;
52284;SDS011;38238;53.304;6.606;2022-09-30T17:11:28;5.40;;;3.90;;
52284;SDS011;38238;53.304;6.606;2022-09-30T17:13:58;5.10;;;3.60;;
52284;SDS011;38238;53.304;6.606;2022-09-30T17:16:25;6.22;;;3.67;;
52284;SDS011;38238;53.304;6.606;2022-09-30T17:18:51;5.22;;;3.78;;
52284;SDS011;38238;53.304;6.606;2022-09-30T17:21:22;4.85;;;3.67;;
52284;SDS011;38238;53.304;6.606;2022-09-30T17:23:50;4.97;;;3.83;;
52284;SDS011;38238;53.304;6.606;2022-09-30T17:26:16;5.20;;;4.07;;
52284;SDS011;38238;53.304;6.606;2022-09-30T17:28:42;5.65;;;4.03;;
52284;SDS011;38238;53.304;6.606;2022-09-30T17:31:09;6.22;;;4.15;;
52284;SDS011;38238;53.304;6.606;2022-09-30T17:33:36;5.95;;;4.57;;
52284;SDS011;38238;53.304;6.606;2022-09-30T17:36:04;7.72;;;4.38;;
52284;SDS011;38238;53.304;6.606;2022-09-30T17:38:32;7.78;;;4.55;;
52284;SDS011;38238;53.304;6.606;2022-09-30T17:40:58;6.03;;;4.68;;
52284;SDS011;38238;53.304;6.606;2022-09-30T17:43:43;6.53;;;4.80;;
52284;SDS011;38238;53.304;6.606;2022-09-30T17:46:10;5.90;;;4.55;;
52284;SDS011;38238;53.304;6.606;2022-09-30T17:48:36;5.70;;;5.10;;
52284;SDS011;38238;53.304;6.606;2022-09-30T17:51:03;6.10;;;5.15;;
52284;SDS011;38238;53.304;6.606;2022-09-30T17:53:30;5.72;;;4.97;;
52284;SDS011;38238;53.304;6.606;2022-09-30T17:56:03;6.22;;;5.15;;
52284;SDS011;38238;53.304;6.606;2022-09-30T17:58:34;5.95;;;4.97;;
52284;SDS011;38238;53.304;6.606;2022-09-30T18:01:04;6.82;;;5.45;;
52284;SDS011;38238;53.304;6.606;2022-09-30T18:03:34;5.85;;;5.03;;
52284;SDS011;38238;53.304;6.606;2022-09-30T18:06:01;5.63;;;5.03;;
52284;SDS011;38238;53.304;6.606;2022-09-30T18:08:27;6.30;;;5.60;;
52284;SDS011;38238;53.304;6.606;2022-09-30T18:10:54;7.03;;;5.53;;
52284;SDS011;38238;53.304;6.606;2022-09-30T18:13:22;6.80;;;6.10;;
52284;SDS011;38238;53.304;6.606;2022-09-30T18:15:48;7.50;;;5.90;;
52284;SDS011;38238;53.304;6.606;2022-09-30T18:18:14;8.57;;;6.50;;
52284;SDS011;38238;53.304;6.606;2022-09-30T18:20:47;6.70;;;6.00;;
52284;SDS011;38238;53.304;6.606;2022-09-30T18:23:14;7.05;;;6.35;;
52284;SDS011;38238;53.304;6.606;2022-09-30T18:25:43;8.25;;;6.22;;
52284;SDS011;38238;53.304;6.606;2022-09-30T18:28:14;6.82;;;6.13;;
52284;SDS011;38238;53.304;6.606;2022-09-30T18:30:40;8.27;;;6.07;;
52284;SDS011;38238;53.304;6.606;2022-09-30T18:33:07;6.85;;;5.68;;
52284;SDS011;38238;53.304;6.606;2022-09-30T18:35:34;6.47;;;5.85;;
52284;SDS011;38238;53.304;6.606;2022-09-30T18:38:02;6.35;;;5.07;;
52284;SDS011;38238;53.304;6.606;2022-09-30T18:40:28;6.35;;;5.50;;
52284;SDS011;38238;53.304;6.606;2022-09-30T18:42:59;6.63;;;5.45;;
52284;SDS011;38238;53.304;6.606;2022-09-30T18:45:33;5.70;;;5.18;;
52284;SDS011;38238;53.304;6.606;2022-09-30T18:48:04;6.70;;;4.75;;
52284;SDS011;38238;53.304;6.606;2022-09-30T18:50:31;11.10;;;5.65;;
52284;SDS011;38238;53.304;6.606;2022-09-30T18:52:58;6.22;;;5.55;;
52284;SDS011;38238;53.304;6.606;2022-09-30T18:55:32;7.18;;;4.90;;
52284;SDS011;38238;53.304;6.606;2022-09-30T18:57:59;7.22;;;4.90;;
52284;SDS011;38238;53.304;6.606;2022-09-30T19:00:28;6.43;;;5.05;;
52284;SDS011;38238;53.304;6.606;2022-09-30T19:02:55;5.38;;;4.38;;
52284;SDS011;38238;53.304;6.606;2022-09-30T19:05:21;6.03;;;5.07;;
52284;SDS011;38238;53.304;6.606;2022-09-30T19:07:47;6.53;;;5.28;;
52284;SDS011;38238;53.304;6.606;2022-09-30T19:10:13;5.97;;;4.43;;
52284;SDS011;38238;53.304;6.606;2022-09-30T19:12:43;5.72;;;4.53;;
52284;SDS011;38238;53.304;6.606;2022-09-30T19:15:11;4.95;;;4.28;;
52284;SDS011;38238;53.304;6.606;2022-09-30T19:17:40;12.38;;;4.28;;